createdAt,value
2019-06-10T00:02:17.659Z,13.30
2019-06-10T00:04:50.712Z,13.83
2019-06-10T00:07:21.143Z,14.07
2019-06-10T00:09:51.804Z,13.00
2019-06-10T00:12:22.910Z,13.63
2019-06-10T00:14:53.783Z,14.27
2019-06-10T00:17:24.584Z,13.90
2019-06-10T00:19:55.325Z,13.87
2019-06-10T00:22:26.054Z,13.23
2019-06-10T00:24:57.514Z,14.13
2019-06-10T00:27:31.181Z,14.30
2019-06-10T00:30:03.398Z,14.00
2019-06-10T00:32:33.959Z,15.00
2019-06-10T00:35:07.731Z,13.97
2019-06-10T00:37:38.684Z,14.07
2019-06-10T00:40:13.780Z,14.40
2019-06-10T00:42:42.176Z,13.83
2019-06-10T00:45:17.865Z,14.17
2019-06-10T00:47:45.468Z,13.70
2019-06-10T00:50:16.187Z,14.70
2019-06-10T00:52:47.217Z,14.70
2019-06-10T00:55:17.747Z,15.07
2019-06-10T00:57:50.848Z,16.13
2019-06-10T01:00:25.632Z,15.23
2019-06-10T01:02:52.814Z,15.27
2019-06-10T01:05:23.355Z,15.30
2019-06-10T01:07:54.043Z,17.00
2019-06-10T01:10:25.543Z,15.97
2019-06-10T01:12:57.200Z,16.43
2019-06-10T01:15:27.772Z,16.33
2019-06-10T01:17:58.363Z,15.10
2019-06-10T01:20:28.885Z,16.27
2019-06-10T01:23:01.504Z,15.50
2019-06-10T01:25:31.405Z,14.97
2019-06-10T01:28:05.619Z,16.40
2019-06-10T01:30:36.281Z,16.67
2019-06-10T01:33:06.701Z,16.77
2019-06-10T01:35:37.292Z,17.17
2019-06-10T01:38:07.905Z,15.90
2019-06-10T01:40:38.320Z,16.13
2019-06-10T01:43:11.040Z,16.30
2019-06-10T01:45:41.944Z,15.10
2019-06-10T01:48:14.926Z,15.73
2019-06-10T01:50:44.674Z,14.90
2019-06-10T01:53:16.075Z,13.97
2019-06-10T01:55:47.432Z,15.03
2019-06-10T01:58:23.213Z,13.83
2019-06-10T02:01:23.346Z,14.17
2019-06-10T02:03:55.349Z,14.93
2019-06-10T02:06:26.149Z,14.80
2019-06-10T02:09:05.778Z,14.00
2019-06-10T02:11:37.241Z,14.80
2019-06-10T02:14:09.403Z,14.73
2019-06-10T02:16:41.512Z,14.27
2019-06-10T02:19:14.254Z,15.67
2019-06-10T02:21:44.181Z,15.47
2019-06-10T02:24:16.415Z,15.40
2019-06-10T02:26:47.497Z,15.77
2019-06-10T02:29:19.704Z,17.27
2019-06-10T02:31:52.230Z,16.47
2019-06-10T02:34:27.112Z,16.40
2019-06-10T02:36:55.019Z,18.10
2019-06-10T02:39:33.461Z,17.87
2019-06-10T02:42:04.420Z,18.47
2019-06-10T02:44:37.509Z,18.73
2019-06-10T02:47:08.173Z,19.80
2019-06-10T02:49:56.472Z,18.53
2019-06-10T02:52:24.662Z,19.90
2019-06-10T02:54:53.421Z,19.97
2019-06-10T02:57:30.488Z,18.63
2019-06-10T02:59:56.591Z,19.57
2019-06-10T03:02:31.534Z,19.60
2019-06-10T03:04:59.577Z,19.43
2019-06-10T03:07:34.875Z,19.67
2019-06-10T03:10:04.640Z,19.47
2019-06-10T03:12:35.714Z,18.47
2019-06-10T03:15:07.635Z,20.47
2019-06-10T03:17:38.540Z,18.53
2019-06-10T03:20:09.320Z,20.07
2019-06-10T03:22:42.147Z,19.37
2019-06-10T03:25:26.482Z,19.50
2019-06-10T03:27:57.819Z,19.47
2019-06-10T03:30:44.236Z,19.80
2019-06-10T03:33:04.661Z,20.40
2019-06-10T03:35:33.086Z,19.80
2019-06-10T03:38:04.916Z,18.33
2019-06-10T03:40:35.384Z,18.40
2019-06-10T03:43:05.853Z,18.47
2019-06-10T03:45:36.451Z,18.93
2019-06-10T03:48:07.659Z,20.00
2019-06-10T03:50:38.105Z,18.70
2019-06-10T03:53:08.548Z,19.10
2019-06-10T03:55:39.504Z,18.50
2019-06-10T03:58:12.460Z,18.97
2019-06-10T04:00:43.116Z,18.53
2019-06-10T04:03:13.603Z,18.00
2019-06-10T04:05:44.190Z,17.13
2019-06-10T04:08:14.608Z,17.37
2019-06-10T04:10:45.112Z,17.27
2019-06-10T04:13:15.639Z,17.43
2019-06-10T04:15:46.209Z,17.37
2019-06-10T04:18:17.829Z,16.30
2019-06-10T04:20:48.693Z,15.47
2019-06-10T04:23:19.684Z,16.00
2019-06-10T04:25:52.538Z,14.63
2019-06-10T04:28:24.685Z,14.03
2019-06-10T04:30:54.948Z,13.87
2019-06-10T04:33:26.206Z,15.17
2019-06-10T04:35:58.254Z,14.50
2019-06-10T04:38:29.110Z,15.50
2019-06-10T04:40:59.831Z,13.17
2019-06-10T04:43:32.313Z,13.17
2019-06-10T04:46:02.821Z,13.57
2019-06-10T04:48:33.373Z,13.83
2019-06-10T04:51:04.818Z,15.07
2019-06-10T04:53:35.341Z,14.37
2019-06-10T04:56:05.745Z,14.77
2019-06-10T04:58:36.301Z,15.37
2019-06-10T05:01:06.839Z,13.33
2019-06-10T05:03:37.563Z,13.73
2019-06-10T05:06:08.071Z,12.97
2019-06-10T05:08:38.917Z,11.83
2019-06-10T05:11:12.628Z,12.83
2019-06-10T05:13:48.594Z,12.20
2019-06-10T05:16:19.565Z,12.97
2019-06-10T05:18:54.028Z,12.00
2019-06-10T05:21:25.068Z,12.13
2019-06-10T05:23:55.052Z,11.03
2019-06-10T05:26:27.163Z,12.17
2019-06-10T05:28:57.812Z,12.53
2019-06-10T05:31:30.064Z,12.20
2019-06-10T05:34:02.393Z,10.90
2019-06-10T05:36:34.778Z,10.00
2019-06-10T05:39:07.910Z,10.00
2019-06-10T05:41:39.051Z,9.73
2019-06-10T05:44:09.606Z,9.63
2019-06-10T05:46:40.394Z,9.70
2019-06-10T05:49:12.556Z,9.93
2019-06-10T05:51:43.278Z,9.57
2019-06-10T05:54:13.979Z,8.80
2019-06-10T05:56:44.572Z,9.53
2019-06-10T05:59:15.538Z,9.53
2019-06-10T06:01:46.235Z,9.00
2019-06-10T06:04:16.774Z,8.07
2019-06-10T06:06:47.484Z,8.50
2019-06-10T06:09:18.482Z,8.60
2019-06-10T06:11:49.291Z,8.38
2019-06-10T06:14:19.776Z,9.00
2019-06-10T06:16:53.187Z,8.20
2019-06-10T06:19:23.151Z,9.00
2019-06-10T06:21:53.863Z,8.25
2019-06-10T06:24:25.557Z,8.00
2019-06-10T06:26:56.401Z,8.15
2019-06-10T06:29:27.221Z,7.97
2019-06-10T06:31:58.046Z,7.83
2019-06-10T06:34:28.534Z,8.18
2019-06-10T06:36:59.419Z,8.43
2019-06-10T06:39:32.255Z,7.92
2019-06-10T06:42:02.719Z,7.97
2019-06-10T06:44:36.091Z,7.42
2019-06-10T06:47:05.334Z,8.53
2019-06-10T06:49:37.095Z,6.78
2019-06-10T06:52:08.838Z,8.23
2019-06-10T06:54:42.505Z,8.83
2019-06-10T06:57:13.471Z,8.08
2019-06-10T06:59:44.336Z,7.75
2019-06-10T07:02:15.533Z,7.72
2019-06-10T07:04:46.740Z,7.50
2019-06-10T07:07:22.089Z,7.22
2019-06-10T07:09:54.131Z,7.87
2019-06-10T07:12:26.875Z,7.58
2019-06-10T07:14:59.877Z,7.83
2019-06-10T07:17:32.003Z,8.05
2019-06-10T07:20:04.025Z,7.97
2019-06-10T07:22:36.883Z,7.30
2019-06-10T07:25:08.194Z,7.37
2019-06-10T07:27:42.864Z,7.15
2019-06-10T07:30:18.123Z,7.50
2019-06-10T07:32:49.307Z,7.45
2019-06-10T07:35:22.068Z,7.67
2019-06-10T07:37:52.445Z,7.78
2019-06-10T07:40:24.367Z,9.05
2019-06-10T07:42:54.938Z,8.23
2019-06-10T07:45:25.923Z,8.78
2019-06-10T07:47:56.719Z,7.75
2019-06-10T07:50:27.443Z,8.13
2019-06-10T07:52:57.963Z,8.47
2019-06-10T07:55:28.948Z,8.50
2019-06-10T07:57:59.437Z,8.00
2019-06-10T08:00:30.463Z,7.83
2019-06-10T08:03:02.435Z,8.07
2019-06-10T08:05:34.206Z,7.93
2019-06-10T08:08:05.689Z,8.67
2019-06-10T08:10:37.043Z,7.93
2019-06-10T08:13:07.661Z,8.70
2019-06-10T08:15:39.735Z,7.93
2019-06-10T08:18:12.990Z,8.53
2019-06-10T08:20:47.473Z,8.40
2019-06-10T08:23:19.547Z,8.80
2019-06-10T08:25:56.575Z,8.60
2019-06-10T08:28:23.342Z,9.13
2019-06-10T08:30:53.829Z,8.57
2019-06-10T08:33:24.536Z,8.40
2019-06-10T08:36:00.208Z,8.23
2019-06-10T08:38:27.397Z,8.83
2019-06-10T08:40:57.905Z,8.73
2019-06-10T08:43:28.665Z,8.73
2019-06-10T08:45:59.103Z,8.70
2019-06-10T08:48:29.760Z,8.03
2019-06-10T08:51:03.269Z,8.87
2019-06-10T08:53:33.320Z,8.53
2019-06-10T08:56:03.981Z,8.90
2019-06-10T08:58:34.909Z,8.80
2019-06-10T09:01:05.779Z,8.20
2019-06-10T09:03:38.539Z,8.47
2019-06-10T09:06:08.621Z,8.93
2019-06-10T09:08:41.070Z,8.73
2019-06-10T09:11:13.002Z,8.97
2019-06-10T09:13:48.054Z,8.73
2019-06-10T09:16:19.474Z,8.40
2019-06-10T09:18:52.034Z,8.57
2019-06-10T09:21:22.469Z,8.43
2019-06-10T09:23:59.853Z,8.50
2019-06-10T09:26:25.884Z,8.40
2019-06-10T09:28:56.813Z,8.10
2019-06-10T09:31:27.738Z,8.87
2019-06-10T09:33:58.350Z,8.40
2019-06-10T09:36:29.285Z,8.40
2019-06-10T09:39:00.014Z,8.90
2019-06-10T09:41:37.349Z,8.87
2019-06-10T09:44:03.366Z,7.80
2019-06-10T09:46:36.542Z,8.23
2019-06-10T09:49:07.558Z,7.93
2019-06-10T09:51:38.494Z,7.47
2019-06-10T09:54:09.262Z,7.87
2019-06-10T09:56:41.105Z,7.77
2019-06-10T09:59:14.603Z,8.67
2019-06-10T10:01:49.067Z,8.03
2019-06-10T10:04:17.685Z,8.20
2019-06-10T10:06:51.846Z,8.30
2019-06-10T10:09:23.178Z,8.47
2019-06-10T10:11:55.307Z,7.23
2019-06-10T10:14:25.801Z,7.80
2019-06-10T10:17:00.271Z,7.30
2019-06-10T10:19:29.088Z,8.17
2019-06-10T10:21:59.830Z,7.80
2019-06-10T10:24:30.658Z,7.80
2019-06-10T10:27:05.217Z,7.60
2019-06-10T10:29:33.823Z,7.53
2019-06-10T10:32:04.561Z,6.90
2019-06-10T10:34:35.164Z,6.73
2019-06-10T10:37:05.774Z,7.13
2019-06-10T10:39:36.293Z,7.60
2019-06-10T10:42:07.007Z,7.30
2019-06-10T10:44:37.532Z,8.23
2019-06-10T10:47:08.036Z,8.50
2019-06-10T10:49:38.604Z,9.10
2019-06-10T10:52:09.437Z,8.50
2019-06-10T10:54:39.944Z,7.70
2019-06-10T10:57:13.050Z,7.73
2019-06-10T10:59:43.547Z,7.07
2019-06-10T11:02:14.840Z,7.77
2019-06-10T11:04:47.929Z,7.50
2019-06-10T11:07:18.615Z,7.33
2019-06-10T11:09:50.308Z,7.73
2019-06-10T11:12:22.920Z,8.53
2019-06-10T11:15:00.484Z,7.47
2019-06-10T11:17:27.812Z,7.57
2019-06-10T11:19:58.561Z,7.90
2019-06-10T11:22:29.118Z,8.20
2019-06-10T11:24:59.748Z,8.13
2019-06-10T11:27:32.989Z,7.67
2019-06-10T11:30:04.084Z,8.80
2019-06-10T11:32:34.971Z,8.37
2019-06-10T11:35:06.469Z,8.13
2019-06-10T11:37:37.613Z,8.50
2019-06-10T11:40:08.073Z,9.00
2019-06-10T11:42:38.565Z,9.07
2019-06-10T11:45:10.127Z,8.40
2019-06-10T11:47:42.595Z,9.53
2019-06-10T11:50:14.013Z,9.27
2019-06-10T11:52:45.003Z,9.90
2019-06-10T11:55:19.136Z,8.93
2019-06-10T11:57:47.960Z,9.17
2019-06-10T12:00:23.067Z,9.13
2019-06-10T12:02:55.547Z,10.13
2019-06-10T12:05:25.829Z,9.67
2019-06-10T12:07:59.801Z,9.80
2019-06-10T12:10:28.717Z,10.27
2019-06-10T12:13:04.254Z,10.17
2019-06-10T12:15:46.232Z,9.13
2019-06-10T12:18:08.450Z,9.40
2019-06-10T12:20:36.432Z,8.90
2019-06-10T12:23:07.125Z,9.10
2019-06-10T12:25:39.709Z,9.73
2019-06-10T12:28:09.816Z,9.77
2019-06-10T12:30:42.339Z,8.70
2019-06-10T12:33:21.438Z,8.80
2019-06-10T12:35:45.410Z,9.87
2019-06-10T12:38:15.947Z,9.07
2019-06-10T12:40:46.505Z,8.60
2019-06-10T12:43:17.840Z,8.60
2019-06-10T12:45:48.412Z,8.97
2019-06-10T12:48:19.448Z,8.47
2019-06-10T12:50:50.252Z,9.37
2019-06-10T12:53:22.917Z,8.17
2019-06-10T12:55:55.482Z,8.73
2019-06-10T12:58:25.823Z,7.83
2019-06-10T13:00:57.215Z,8.17
2019-06-10T13:03:28.005Z,8.60
2019-06-10T13:06:02.885Z,8.10
2019-06-10T13:08:35.726Z,8.17
2019-06-10T13:11:06.162Z,7.77
2019-06-10T13:13:36.737Z,7.53
2019-06-10T13:16:09.122Z,7.10
2019-06-10T13:18:39.619Z,8.27
2019-06-10T13:21:16.482Z,7.77
2019-06-10T13:23:43.331Z,7.33
2019-06-10T13:26:16.639Z,7.53
2019-06-10T13:28:46.343Z,7.80
2019-06-10T13:31:18.788Z,7.43
2019-06-10T13:33:49.616Z,7.47
2019-06-10T13:36:25.376Z,7.07
2019-06-10T13:38:53.383Z,7.40
2019-06-10T13:41:24.171Z,6.73
2019-06-10T13:43:54.967Z,7.13
2019-06-10T13:46:25.726Z,7.23
2019-06-10T13:48:56.944Z,7.20
2019-06-10T13:51:27.865Z,6.80
2019-06-10T13:53:58.711Z,6.57
2019-06-10T13:56:43.219Z,6.93
2019-06-10T13:59:04.198Z,6.83
2019-06-10T14:01:35.121Z,7.17
2019-06-10T14:04:13.773Z,6.80
2019-06-10T14:06:47.055Z,7.17
2019-06-10T14:09:16.025Z,7.83
2019-06-10T14:11:42.939Z,7.07
2019-06-10T14:14:17.413Z,6.63
2019-06-10T14:16:46.145Z,6.87
2019-06-10T14:19:16.916Z,6.97
2019-06-10T14:21:47.585Z,6.90
2019-06-10T14:24:18.316Z,6.53
2019-06-10T14:26:49.191Z,6.53
2019-06-10T14:29:20.129Z,6.40
2019-06-10T14:31:53.253Z,6.50
2019-06-10T14:34:22.993Z,7.07
2019-06-10T14:36:53.753Z,6.70
2019-06-10T14:39:24.715Z,6.17
2019-06-10T14:41:55.522Z,6.10
2019-06-10T14:44:26.189Z,6.60
2019-06-10T14:46:56.861Z,6.07
2019-06-10T14:49:27.424Z,6.67
2019-06-10T14:51:58.249Z,6.30
2019-06-10T14:54:28.992Z,6.37
2019-06-10T14:56:59.555Z,6.50
2019-06-10T14:59:30.283Z,6.10
2019-06-10T15:02:02.830Z,6.53
2019-06-10T15:04:33.550Z,7.20
2019-06-10T15:07:04.616Z,6.23
2019-06-10T15:09:35.364Z,6.50
2019-06-10T15:12:05.971Z,6.37
2019-06-10T15:14:36.774Z,6.17
2019-06-10T15:17:08.505Z,6.07
2019-06-10T15:19:39.277Z,6.90
2019-06-10T15:22:12.206Z,6.80
2019-06-10T15:24:42.896Z,6.97
2019-06-10T15:27:23.358Z,5.80
2019-06-10T15:29:46.857Z,6.60
2019-06-10T15:32:29.696Z,6.47
2019-06-10T15:34:49.657Z,6.30
2019-06-10T15:37:21.342Z,6.47
2019-06-10T15:39:52.924Z,6.43
2019-06-10T15:42:23.979Z,5.90
2019-06-10T15:44:55.992Z,6.03
2019-06-10T15:47:28.027Z,6.23
2019-06-10T15:49:58.891Z,6.33
2019-06-10T15:52:29.832Z,6.03
2019-06-10T15:55:00.398Z,5.97
2019-06-10T15:57:40.731Z,6.47
2019-06-10T16:00:11.251Z,6.43
2019-06-10T16:02:35.989Z,5.90
2019-06-10T16:05:07.194Z,5.73
2019-06-10T16:07:37.929Z,6.83
2019-06-10T16:10:09.029Z,6.13
2019-06-10T16:12:39.682Z,5.83
2019-06-10T16:15:13.326Z,6.33
2019-06-10T16:17:43.382Z,6.87
2019-06-10T16:20:15.802Z,6.30
2019-06-10T16:22:46.484Z,6.40
2019-06-10T16:25:17.779Z,6.43
2019-06-10T16:27:51.071Z,7.17
2019-06-10T16:30:23.171Z,7.73
2019-06-10T16:32:53.873Z,6.70
2019-06-10T16:35:26.782Z,7.17
2019-06-10T16:37:57.177Z,7.43
2019-06-10T16:40:27.872Z,6.43
2019-06-10T16:42:58.634Z,7.17
2019-06-10T16:45:33.849Z,7.13
2019-06-10T16:48:04.127Z,6.90
2019-06-10T16:50:35.025Z,7.70
2019-06-10T16:53:05.862Z,7.50
2019-06-10T16:55:36.545Z,7.97
2019-06-10T16:58:08.468Z,7.90
2019-06-10T17:00:39.655Z,6.83
2019-06-10T17:03:12.675Z,6.73
2019-06-10T17:05:43.389Z,7.37
2019-06-10T17:08:15.321Z,7.77
2019-06-10T17:10:46.460Z,7.33
2019-06-10T17:13:19.282Z,7.43
2019-06-10T17:15:49.772Z,7.53
2019-06-10T17:18:23.108Z,7.20
2019-06-10T17:20:53.681Z,7.50
2019-06-10T17:23:28.947Z,7.80
2019-06-10T17:25:58.569Z,6.90
2019-06-10T17:28:33.891Z,7.90
2019-06-10T17:31:03.734Z,8.00
2019-06-10T17:33:35.686Z,8.67
2019-06-10T17:36:06.365Z,8.47
2019-06-10T17:38:36.929Z,8.87
2019-06-10T17:41:07.780Z,8.10
2019-06-10T17:43:38.592Z,9.20
2019-06-10T17:46:09.374Z,8.17
2019-06-10T17:48:40.272Z,8.10
2019-06-10T17:51:11.151Z,7.97
2019-06-10T17:53:42.706Z,8.30
2019-06-10T17:56:13.706Z,8.03
2019-06-10T17:58:53.777Z,8.17
2019-06-10T18:01:17.241Z,8.10
2019-06-10T18:03:48.064Z,7.80
2019-06-10T18:06:18.757Z,8.53
2019-06-10T18:08:49.445Z,7.43
2019-06-10T18:11:20.119Z,8.40
2019-06-10T18:13:52.783Z,7.90
2019-06-10T18:16:24.523Z,7.90
2019-06-10T18:18:56.024Z,8.30
2019-06-10T18:21:26.901Z,8.50
2019-06-10T18:24:07.280Z,8.20
2019-06-10T18:26:30.978Z,7.87
2019-06-10T18:29:08.076Z,8.30
2019-06-10T18:31:36.767Z,8.13
2019-06-10T18:34:07.774Z,8.57
2019-06-10T18:36:38.764Z,8.40
2019-06-10T18:39:12.230Z,9.07
2019-06-10T18:41:42.201Z,7.60
2019-06-10T18:44:22.502Z,8.07
2019-06-10T18:46:45.667Z,7.73
2019-06-10T18:49:16.533Z,8.47
2019-06-10T18:51:47.380Z,8.40
2019-06-10T18:54:18.016Z,8.53
2019-06-10T18:56:48.886Z,8.83
2019-06-10T18:59:21.171Z,8.53
2019-06-10T19:01:52.703Z,7.97
2019-06-10T19:04:23.797Z,9.07
2019-06-10T19:06:54.641Z,9.17
2019-06-10T19:09:25.557Z,9.07
2019-06-10T19:11:56.299Z,10.03
2019-06-10T19:14:27.362Z,9.60
2019-06-10T19:16:58.240Z,10.17
2019-06-10T19:19:29.903Z,9.77
2019-06-10T19:22:08.220Z,9.90
2019-06-10T19:24:34.913Z,10.93
2019-06-10T19:27:05.787Z,9.80
2019-06-10T19:29:45.309Z,9.70
2019-06-10T19:32:09.373Z,8.57
2019-06-10T19:34:42.493Z,9.90
2019-06-10T19:37:13.035Z,9.80
2019-06-10T19:39:50.256Z,10.67
2019-06-10T19:42:17.414Z,10.20
2019-06-10T19:44:48.344Z,11.03
2019-06-10T19:47:18.997Z,11.40
2019-06-10T19:49:52.119Z,11.40
2019-06-10T19:52:23.433Z,10.50
2019-06-10T19:54:54.795Z,10.77
2019-06-10T19:57:25.739Z,11.67
2019-06-10T20:00:10.588Z,10.20
2019-06-10T20:02:32.614Z,10.90
2019-06-10T20:05:03.169Z,11.10
2019-06-10T20:07:34.479Z,11.23
2019-06-10T20:10:06.812Z,11.57
2019-06-10T20:12:38.458Z,12.37
2019-06-10T20:15:19.312Z,11.70
2019-06-10T20:17:52.507Z,12.03
2019-06-10T20:20:23.586Z,12.23
2019-06-10T20:22:57.385Z,12.40
2019-06-10T20:25:27.499Z,11.10
2019-06-10T20:27:58.643Z,11.73
2019-06-10T20:30:29.863Z,12.73
2019-06-10T20:33:03.424Z,12.57
2019-06-10T20:35:33.815Z,12.30
2019-06-10T20:38:05.308Z,11.83
2019-06-10T20:40:38.074Z,12.43
2019-06-10T20:43:08.834Z,12.53
2019-06-10T20:45:39.873Z,12.07
2019-06-10T20:48:10.610Z,12.67
2019-06-10T20:50:44.075Z,11.63
2019-06-10T20:53:18.516Z,11.87
2019-06-10T20:55:54.001Z,14.30
2019-06-10T20:58:19.836Z,12.67
2019-06-10T21:00:54.111Z,12.10
2019-06-10T21:03:23.422Z,11.83
2019-06-10T21:05:54.435Z,12.43
2019-06-10T21:08:26.366Z,13.33
2019-06-10T21:10:57.532Z,12.20
2019-06-10T21:13:28.335Z,12.00
2019-06-10T21:15:59.387Z,12.87
2019-06-10T21:18:32.718Z,12.57
2019-06-10T21:21:02.823Z,11.80
2019-06-10T21:23:33.564Z,11.97
2019-06-10T21:26:04.380Z,11.77
2019-06-10T21:28:35.254Z,11.80
2019-06-10T21:31:06.207Z,13.70
2019-06-10T21:33:38.612Z,13.83
2019-06-10T21:36:09.101Z,12.67
2019-06-10T21:38:39.858Z,11.90
2019-06-10T21:41:12.336Z,13.10
2019-06-10T21:43:48.129Z,12.80
2019-06-10T21:46:14.999Z,13.53
2019-06-10T21:48:47.370Z,13.40
2019-06-10T21:51:18.694Z,12.53
2019-06-10T21:53:50.650Z,13.53
2019-06-10T21:56:22.883Z,14.07
2019-06-10T21:58:55.384Z,13.30
2019-06-10T22:01:25.685Z,13.80
2019-06-10T22:04:00.727Z,13.73
2019-06-10T22:06:28.971Z,13.73
2019-06-10T22:08:59.900Z,13.00
2019-06-10T22:11:30.980Z,12.43
2019-06-10T22:14:02.782Z,14.50
2019-06-10T22:16:33.828Z,14.87
2019-06-10T22:19:04.679Z,14.87
2019-06-10T22:21:36.073Z,17.43
2019-06-10T22:24:06.957Z,15.17
2019-06-10T22:26:37.730Z,13.47
2019-06-10T22:29:08.802Z,14.73
2019-06-10T22:31:42.736Z,13.87
2019-06-10T22:34:14.340Z,14.27
2019-06-10T22:36:45.502Z,15.10
2019-06-10T22:39:16.788Z,14.90
2019-06-10T22:41:47.600Z,14.80
2019-06-10T22:44:18.774Z,15.13
2019-06-10T22:46:51.898Z,15.00
2019-06-10T22:49:23.696Z,15.20
2019-06-10T22:51:57.937Z,14.97
2019-06-10T22:54:27.410Z,15.50
2019-06-10T22:56:58.601Z,15.00
2019-06-10T22:59:29.708Z,15.10
2019-06-10T23:02:02.826Z,17.60
2019-06-10T23:04:33.407Z,15.00
2019-06-10T23:07:04.390Z,14.13
2019-06-10T23:09:35.595Z,14.47
2019-06-10T23:12:06.718Z,15.77
2019-06-10T23:14:38.594Z,15.67
2019-06-10T23:17:09.559Z,15.80
2019-06-10T23:19:42.746Z,15.67
2019-06-10T23:22:13.901Z,16.30
2019-06-10T23:24:45.025Z,14.90
2019-06-10T23:27:15.969Z,15.27
2019-06-10T23:29:46.803Z,14.70
2019-06-10T23:32:18.282Z,16.20
2019-06-10T23:34:48.909Z,21.50
2019-06-10T23:37:19.662Z,33.10
2019-06-10T23:39:50.719Z,20.27
2019-06-10T23:42:22.780Z,18.07
2019-06-10T23:44:53.594Z,20.27
2019-06-10T23:47:24.442Z,17.53
2019-06-10T23:49:55.655Z,17.50
2019-06-10T23:52:26.898Z,18.63
2019-06-10T23:54:58.186Z,15.80
2019-06-10T23:57:28.986Z,16.23
